Apache Creek, New Mexico
Current Conditions -  °F | °C
As of 8:35 PM on Friday 28 Nov 2014 (Local Time) from KJTC Reporting Station
Clear Clear  
Wind Chill: 34°   Ceiling: Unl
Heat Index: 39°   Visibility: 10mi
Dew Point:   Wind: 8mph
Humidity: 28%   Direction: 210°SSW
Pressure: 30.19"   Gusts: NA
Location:  33.6665°N, 108.765°W
Report Text: KJTC 290335Z AUTO 21007KT 10SM CLR 04/M13 A3019 RMK AO2
Loading
Personal Weather Stations






























Interactive Weather Map New forecast layout! Learn more

10-Day Weather Forecast

Advertisements
Track Severe Weather on mobile